sensor_id;sensor_type;location;lat;lon;timestamp;P1;durP1;ratioP1;P2;durP2;ratioP2
57389;SDS011;43217;52.694;6.214;2024-03-22T00:01:40;50.75;;;36.85;;
57389;SDS011;43217;52.694;6.214;2024-03-22T00:04:05;49.90;;;36.30;;
57389;SDS011;43217;52.694;6.214;2024-03-22T00:06:31;48.20;;;35.45;;
57389;SDS011;43217;52.694;6.214;2024-03-22T00:08:56;48.63;;;36.53;;
57389;SDS011;43217;52.694;6.214;2024-03-22T00:11:22;45.78;;;36.78;;
57389;SDS011;43217;52.694;6.214;2024-03-22T00:13:47;53.22;;;40.17;;
57389;SDS011;43217;52.694;6.214;2024-03-22T00:16:13;48.25;;;36.53;;
57389;SDS011;43217;52.694;6.214;2024-03-22T00:18:39;48.72;;;37.80;;
57389;SDS011;43217;52.694;6.214;2024-03-22T00:21:04;50.88;;;37.08;;
57389;SDS011;43217;52.694;6.214;2024-03-22T00:23:30;49.42;;;38.80;;
57389;SDS011;43217;52.694;6.214;2024-03-22T00:25:55;46.83;;;37.25;;
57389;SDS011;43217;52.694;6.214;2024-03-22T00:28:21;49.97;;;37.90;;
57389;SDS011;43217;52.694;6.214;2024-03-22T00:30:47;48.33;;;38.60;;
57389;SDS011;43217;52.694;6.214;2024-03-22T00:33:12;50.40;;;40.40;;
57389;SDS011;43217;52.694;6.214;2024-03-22T00:35:38;49.85;;;38.53;;
57389;SDS011;43217;52.694;6.214;2024-03-22T00:38:03;53.08;;;40.03;;
57389;SDS011;43217;52.694;6.214;2024-03-22T00:40:29;52.53;;;40.50;;
57389;SDS011;43217;52.694;6.214;2024-03-22T00:42:55;53.90;;;39.72;;
57389;SDS011;43217;52.694;6.214;2024-03-22T00:45:20;55.35;;;42.08;;
57389;SDS011;43217;52.694;6.214;2024-03-22T00:47:46;51.55;;;40.10;;
57389;SDS011;43217;52.694;6.214;2024-03-22T00:50:11;53.58;;;39.35;;
57389;SDS011;43217;52.694;6.214;2024-03-22T00:52:37;54.53;;;41.63;;
57389;SDS011;43217;52.694;6.214;2024-03-22T00:55:04;55.60;;;42.10;;
57389;SDS011;43217;52.694;6.214;2024-03-22T00:57:30;55.55;;;41.25;;
57389;SDS011;43217;52.694;6.214;2024-03-22T00:59:56;59.00;;;42.67;;
57389;SDS011;43217;52.694;6.214;2024-03-22T01:02:21;55.38;;;41.80;;
57389;SDS011;43217;52.694;6.214;2024-03-22T01:04:48;55.88;;;42.88;;
57389;SDS011;43217;52.694;6.214;2024-03-22T01:07:13;54.25;;;41.33;;
57389;SDS011;43217;52.694;6.214;2024-03-22T01:09:39;59.40;;;43.17;;
57389;SDS011;43217;52.694;6.214;2024-03-22T01:12:04;58.22;;;43.42;;
57389;SDS011;43217;52.694;6.214;2024-03-22T01:14:30;55.80;;;42.90;;
57389;SDS011;43217;52.694;6.214;2024-03-22T01:16:56;57.45;;;41.78;;
57389;SDS011;43217;52.694;6.214;2024-03-22T01:19:22;57.03;;;41.72;;
57389;SDS011;43217;52.694;6.214;2024-03-22T01:21:48;60.45;;;44.10;;
57389;SDS011;43217;52.694;6.214;2024-03-22T01:24:14;59.30;;;42.45;;
57389;SDS011;43217;52.694;6.214;2024-03-22T01:26:40;58.03;;;43.30;;
57389;SDS011;43217;52.694;6.214;2024-03-22T01:29:05;60.08;;;44.58;;
57389;SDS011;43217;52.694;6.214;2024-03-22T01:31:31;59.50;;;43.55;;
57389;SDS011;43217;52.694;6.214;2024-03-22T01:33:56;64.10;;;46.33;;
57389;SDS011;43217;52.694;6.214;2024-03-22T01:36:22;60.38;;;43.58;;
57389;SDS011;43217;52.694;6.214;2024-03-22T01:38:47;59.80;;;43.33;;
57389;SDS011;43217;52.694;6.214;2024-03-22T01:41:13;61.28;;;43.83;;
57389;SDS011;43217;52.694;6.214;2024-03-22T01:43:39;57.90;;;42.53;;
57389;SDS011;43217;52.694;6.214;2024-03-22T01:46:05;63.15;;;45.70;;
57389;SDS011;43217;52.694;6.214;2024-03-22T01:50:59;64.90;;;44.95;;
57389;SDS011;43217;52.694;6.214;2024-03-22T01:53:25;61.38;;;44.95;;
57389;SDS011;43217;52.694;6.214;2024-03-22T01:55:51;61.30;;;44.30;;
57389;SDS011;43217;52.694;6.214;2024-03-22T01:58:17;61.85;;;43.92;;
57389;SDS011;43217;52.694;6.214;2024-03-22T02:00:43;63.58;;;45.30;;
57389;SDS011;43217;52.694;6.214;2024-03-22T02:03:09;62.97;;;44.15;;
57389;SDS011;43217;52.694;6.214;2024-03-22T02:05:35;60.20;;;43.30;;
57389;SDS011;43217;52.694;6.214;2024-03-22T02:08:00;63.88;;;44.67;;
57389;SDS011;43217;52.694;6.214;2024-03-22T02:10:26;62.88;;;45.10;;
57389;SDS011;43217;52.694;6.214;2024-03-22T02:12:51;62.33;;;43.58;;
57389;SDS011;43217;52.694;6.214;2024-03-22T02:15:17;67.00;;;45.58;;
57389;SDS011;43217;52.694;6.214;2024-03-22T02:17:43;66.22;;;46.25;;
57389;SDS011;43217;52.694;6.214;2024-03-22T02:20:09;65.20;;;45.97;;
57389;SDS011;43217;52.694;6.214;2024-03-22T02:22:37;64.05;;;46.03;;
57389;SDS011;43217;52.694;6.214;2024-03-22T02:25:03;63.47;;;43.85;;
57389;SDS011;43217;52.694;6.214;2024-03-22T02:27:28;65.22;;;46.60;;
57389;SDS011;43217;52.694;6.214;2024-03-22T02:29:54;63.10;;;43.58;;
57389;SDS011;43217;52.694;6.214;2024-03-22T02:32:20;67.15;;;46.78;;
57389;SDS011;43217;52.694;6.214;2024-03-22T02:34:45;65.03;;;45.70;;
57389;SDS011;43217;52.694;6.214;2024-03-22T02:37:11;65.20;;;45.95;;
57389;SDS011;43217;52.694;6.214;2024-03-22T02:39:36;64.50;;;44.70;;
57389;SDS011;43217;52.694;6.214;2024-03-22T02:42:02;66.63;;;43.88;;
57389;SDS011;43217;52.694;6.214;2024-03-22T02:44:28;65.10;;;45.90;;
57389;SDS011;43217;52.694;6.214;2024-03-22T02:46:53;67.20;;;45.65;;
57389;SDS011;43217;52.694;6.214;2024-03-22T02:49:19;69.97;;;46.33;;
57389;SDS011;43217;52.694;6.214;2024-03-22T02:51:45;67.97;;;46.85;;
57389;SDS011;43217;52.694;6.214;2024-03-22T02:54:10;67.13;;;46.47;;
57389;SDS011;43217;52.694;6.214;2024-03-22T02:56:36;67.53;;;46.70;;
57389;SDS011;43217;52.694;6.214;2024-03-22T02:59:01;64.55;;;45.95;;
57389;SDS011;43217;52.694;6.214;2024-03-22T03:01:27;67.85;;;46.50;;
57389;SDS011;43217;52.694;6.214;2024-03-22T03:03:53;69.53;;;47.35;;
57389;SDS011;43217;52.694;6.214;2024-03-22T03:06:18;68.32;;;45.15;;
57389;SDS011;43217;52.694;6.214;2024-03-22T03:08:45;66.43;;;46.60;;
57389;SDS011;43217;52.694;6.214;2024-03-22T03:11:11;69.45;;;48.38;;
57389;SDS011;43217;52.694;6.214;2024-03-22T03:13:37;69.75;;;47.00;;
57389;SDS011;43217;52.694;6.214;2024-03-22T03:16:02;69.43;;;46.28;;
57389;SDS011;43217;52.694;6.214;2024-03-22T03:18:28;65.65;;;45.65;;
57389;SDS011;43217;52.694;6.214;2024-03-22T03:20:54;72.03;;;46.30;;
57389;SDS011;43217;52.694;6.214;2024-03-22T03:23:19;66.90;;;46.30;;
57389;SDS011;43217;52.694;6.214;2024-03-22T03:25:45;69.05;;;45.63;;
57389;SDS011;43217;52.694;6.214;2024-03-22T03:28:11;72.10;;;46.38;;
57389;SDS011;43217;52.694;6.214;2024-03-22T03:30:38;68.43;;;46.47;;
57389;SDS011;43217;52.694;6.214;2024-03-22T03:33:04;70.85;;;48.53;;
57389;SDS011;43217;52.694;6.214;2024-03-22T03:35:29;69.28;;;45.97;;
57389;SDS011;43217;52.694;6.214;2024-03-22T03:37:55;72.55;;;46.78;;
57389;SDS011;43217;52.694;6.214;2024-03-22T03:40:21;69.35;;;46.55;;
57389;SDS011;43217;52.694;6.214;2024-03-22T03:42:49;70.13;;;45.85;;
57389;SDS011;43217;52.694;6.214;2024-03-22T03:45:18;68.95;;;46.08;;
57389;SDS011;43217;52.694;6.214;2024-03-22T03:47:43;67.97;;;45.33;;
57389;SDS011;43217;52.694;6.214;2024-03-22T03:50:09;67.18;;;44.80;;
57389;SDS011;43217;52.694;6.214;2024-03-22T03:52:35;68.85;;;46.00;;
57389;SDS011;43217;52.694;6.214;2024-03-22T03:55:00;66.75;;;46.58;;
57389;SDS011;43217;52.694;6.214;2024-03-22T03:57:26;69.97;;;45.85;;
57389;SDS011;43217;52.694;6.214;2024-03-22T03:59:52;66.75;;;46.47;;
57389;SDS011;43217;52.694;6.214;2024-03-22T04:02:17;69.32;;;45.60;;
57389;SDS011;43217;52.694;6.214;2024-03-22T04:04:43;69.22;;;46.08;;
57389;SDS011;43217;52.694;6.214;2024-03-22T04:07:08;69.93;;;47.08;;
57389;SDS011;43217;52.694;6.214;2024-03-22T04:09:34;71.30;;;45.33;;
57389;SDS011;43217;52.694;6.214;2024-03-22T04:12:00;71.35;;;46.50;;
57389;SDS011;43217;52.694;6.214;2024-03-22T04:14:26;72.72;;;46.92;;
57389;SDS011;43217;52.694;6.214;2024-03-22T04:16:51;71.80;;;48.83;;
57389;SDS011;43217;52.694;6.214;2024-03-22T04:21:45;68.93;;;45.95;;
57389;SDS011;43217;52.694;6.214;2024-03-22T04:24:10;70.75;;;46.15;;
57389;SDS011;43217;52.694;6.214;2024-03-22T04:26:36;68.40;;;46.22;;
57389;SDS011;43217;52.694;6.214;2024-03-22T04:29:02;71.25;;;46.20;;
57389;SDS011;43217;52.694;6.214;2024-03-22T04:31:27;73.55;;;47.45;;
57389;SDS011;43217;52.694;6.214;2024-03-22T04:33:53;68.18;;;45.80;;
57389;SDS011;43217;52.694;6.214;2024-03-22T04:36:18;69.47;;;45.28;;
57389;SDS011;43217;52.694;6.214;2024-03-22T04:38:44;64.75;;;43.38;;
57389;SDS011;43217;52.694;6.214;2024-03-22T04:41:09;63.05;;;43.08;;
57389;SDS011;43217;52.694;6.214;2024-03-22T04:43:35;63.90;;;43.38;;
57389;SDS011;43217;52.694;6.214;2024-03-22T04:46:01;69.40;;;43.90;;
57389;SDS011;43217;52.694;6.214;2024-03-22T04:48:26;62.70;;;40.20;;
57389;SDS011;43217;52.694;6.214;2024-03-22T04:50:52;59.88;;;41.72;;
57389;SDS011;43217;52.694;6.214;2024-03-22T04:53:21;64.75;;;42.15;;
57389;SDS011;43217;52.694;6.214;2024-03-22T04:55:47;63.75;;;43.22;;
57389;SDS011;43217;52.694;6.214;2024-03-22T04:58:14;60.40;;;41.58;;
57389;SDS011;43217;52.694;6.214;2024-03-22T05:00:41;62.63;;;40.38;;
57389;SDS011;43217;52.694;6.214;2024-03-22T05:03:07;64.63;;;42.72;;
57389;SDS011;43217;52.694;6.214;2024-03-22T05:05:33;63.85;;;41.30;;
57389;SDS011;43217;52.694;6.214;2024-03-22T05:07:59;58.87;;;40.67;;
57389;SDS011;43217;52.694;6.214;2024-03-22T05:10:25;58.10;;;38.72;;
57389;SDS011;43217;52.694;6.214;2024-03-22T05:12:51;61.15;;;39.38;;
57389;SDS011;43217;52.694;6.214;2024-03-22T05:15:16;63.92;;;39.67;;
57389;SDS011;43217;52.694;6.214;2024-03-22T05:17:42;60.47;;;38.25;;
57389;SDS011;43217;52.694;6.214;2024-03-22T05:20:08;60.53;;;38.30;;
57389;SDS011;43217;52.694;6.214;2024-03-22T05:22:38;59.58;;;38.50;;
57389;SDS011;43217;52.694;6.214;2024-03-22T05:25:04;62.35;;;39.90;;
57389;SDS011;43217;52.694;6.214;2024-03-22T05:27:31;59.92;;;39.03;;
57389;SDS011;43217;52.694;6.214;2024-03-22T05:29:57;58.37;;;38.53;;
57389;SDS011;43217;52.694;6.214;2024-03-22T05:32:24;54.80;;;37.20;;
57389;SDS011;43217;52.694;6.214;2024-03-22T05:34:50;57.50;;;37.70;;
57389;SDS011;43217;52.694;6.214;2024-03-22T05:37:16;57.47;;;38.28;;
57389;SDS011;43217;52.694;6.214;2024-03-22T05:39:41;62.85;;;41.10;;
57389;SDS011;43217;52.694;6.214;2024-03-22T05:42:07;64.75;;;39.92;;
57389;SDS011;43217;52.694;6.214;2024-03-22T05:44:33;61.85;;;39.75;;
57389;SDS011;43217;52.694;6.214;2024-03-22T05:46:59;61.65;;;39.22;;
57389;SDS011;43217;52.694;6.214;2024-03-22T05:49:25;60.97;;;38.55;;
57389;SDS011;43217;52.694;6.214;2024-03-22T05:51:50;60.03;;;37.35;;
57389;SDS011;43217;52.694;6.214;2024-03-22T05:54:16;58.33;;;37.53;;
57389;SDS011;43217;52.694;6.214;2024-03-22T05:56:42;62.05;;;38.58;;
57389;SDS011;43217;52.694;6.214;2024-03-22T05:59:07;59.42;;;36.72;;
57389;SDS011;43217;52.694;6.214;2024-03-22T06:01:33;61.88;;;37.30;;
57389;SDS011;43217;52.694;6.214;2024-03-22T06:03:59;54.30;;;35.72;;
57389;SDS011;43217;52.694;6.214;2024-03-22T06:06:25;56.70;;;36.60;;
57389;SDS011;43217;52.694;6.214;2024-03-22T06:08:54;56.78;;;36.30;;
57389;SDS011;43217;52.694;6.214;2024-03-22T06:11:22;57.60;;;37.03;;
57389;SDS011;43217;52.694;6.214;2024-03-22T06:13:48;54.63;;;35.92;;
57389;SDS011;43217;52.694;6.214;2024-03-22T06:16:14;60.33;;;36.72;;
57389;SDS011;43217;52.694;6.214;2024-03-22T06:18:40;55.00;;;34.65;;
57389;SDS011;43217;52.694;6.214;2024-03-22T06:21:06;50.90;;;33.53;;
57389;SDS011;43217;52.694;6.214;2024-03-22T06:23:32;52.47;;;34.50;;
57389;SDS011;43217;52.694;6.214;2024-03-22T06:25:58;51.35;;;33.00;;
57389;SDS011;43217;52.694;6.214;2024-03-22T06:28:25;51.67;;;33.40;;
57389;SDS011;43217;52.694;6.214;2024-03-22T06:30:51;52.95;;;34.60;;
57389;SDS011;43217;52.694;6.214;2024-03-22T06:33:17;50.47;;;32.47;;
57389;SDS011;43217;52.694;6.214;2024-03-22T06:35:42;48.15;;;31.50;;
57389;SDS011;43217;52.694;6.214;2024-03-22T06:38:08;51.47;;;33.17;;
57389;SDS011;43217;52.694;6.214;2024-03-22T06:40:34;46.95;;;31.65;;
57389;SDS011;43217;52.694;6.214;2024-03-22T06:43:00;44.65;;;31.60;;
57389;SDS011;43217;52.694;6.214;2024-03-22T06:45:25;59.42;;;35.03;;
57389;SDS011;43217;52.694;6.214;2024-03-22T06:47:51;50.22;;;34.88;;
57389;SDS011;43217;52.694;6.214;2024-03-22T06:50:17;58.15;;;36.53;;
57389;SDS011;43217;52.694;6.214;2024-03-22T06:52:43;53.08;;;35.13;;
57389;SDS011;43217;52.694;6.214;2024-03-22T06:55:09;53.28;;;34.28;;
57389;SDS011;43217;52.694;6.214;2024-03-22T06:57:35;49.63;;;31.90;;
57389;SDS011;43217;52.694;6.214;2024-03-22T07:00:02;42.03;;;28.50;;
57389;SDS011;43217;52.694;6.214;2024-03-22T07:02:28;43.35;;;28.13;;
57389;SDS011;43217;52.694;6.214;2024-03-22T07:04:54;45.40;;;27.58;;
57389;SDS011;43217;52.694;6.214;2024-03-22T07:07:19;39.28;;;27.08;;
57389;SDS011;43217;52.694;6.214;2024-03-22T07:09:45;40.55;;;26.83;;
57389;SDS011;43217;52.694;6.214;2024-03-22T07:12:12;36.38;;;26.58;;
57389;SDS011;43217;52.694;6.214;2024-03-22T07:14:38;37.95;;;25.17;;
57389;SDS011;43217;52.694;6.214;2024-03-22T07:17:04;38.42;;;24.45;;
57389;SDS011;43217;52.694;6.214;2024-03-22T07:19:30;37.85;;;24.67;;
57389;SDS011;43217;52.694;6.214;2024-03-22T07:21:56;38.50;;;24.77;;
57389;SDS011;43217;52.694;6.214;2024-03-22T07:24:24;34.30;;;24.65;;
57389;SDS011;43217;52.694;6.214;2024-03-22T07:26:50;33.65;;;23.40;;
57389;SDS011;43217;52.694;6.214;2024-03-22T07:29:16;33.90;;;22.88;;
57389;SDS011;43217;52.694;6.214;2024-03-22T07:31:42;35.30;;;22.58;;
57389;SDS011;43217;52.694;6.214;2024-03-22T07:34:07;38.80;;;22.50;;
57389;SDS011;43217;52.694;6.214;2024-03-22T07:36:37;33.83;;;23.63;;
57389;SDS011;43217;52.694;6.214;2024-03-22T07:39:03;36.90;;;23.25;;
57389;SDS011;43217;52.694;6.214;2024-03-22T07:41:31;34.85;;;22.27;;
57389;SDS011;43217;52.694;6.214;2024-03-22T07:43:58;34.90;;;21.70;;
57389;SDS011;43217;52.694;6.214;2024-03-22T07:46:25;35.35;;;21.77;;
57389;SDS011;43217;52.694;6.214;2024-03-22T07:48:51;30.80;;;21.25;;
57389;SDS011;43217;52.694;6.214;2024-03-22T07:51:16;35.65;;;21.05;;
57389;SDS011;43217;52.694;6.214;2024-03-22T07:53:42;32.45;;;19.33;;
57389;SDS011;43217;52.694;6.214;2024-03-22T07:56:07;26.27;;;18.85;;
57389;SDS011;43217;52.694;6.214;2024-03-22T07:58:33;34.25;;;19.92;;
57389;SDS011;43217;52.694;6.214;2024-03-22T08:00:58;32.35;;;19.02;;
57389;SDS011;43217;52.694;6.214;2024-03-22T08:03:24;31.08;;;18.70;;
57389;SDS011;43217;52.694;6.214;2024-03-22T08:05:50;28.48;;;19.70;;
57389;SDS011;43217;52.694;6.214;2024-03-22T08:08:15;32.35;;;20.55;;
57389;SDS011;43217;52.694;6.214;2024-03-22T08:10:41;35.15;;;22.05;;
57389;SDS011;43217;52.694;6.214;2024-03-22T08:13:07;36.25;;;23.60;;
57389;SDS011;43217;52.694;6.214;2024-03-22T08:15:32;41.33;;;25.77;;
57389;SDS011;43217;52.694;6.214;2024-03-22T08:17:58;38.15;;;24.00;;
57389;SDS011;43217;52.694;6.214;2024-03-22T08:20:24;29.30;;;19.13;;
57389;SDS011;43217;52.694;6.214;2024-03-22T08:22:53;28.77;;;18.10;;
57389;SDS011;43217;52.694;6.214;2024-03-22T08:25:19;25.10;;;17.50;;
57389;SDS011;43217;52.694;6.214;2024-03-22T08:27:45;26.67;;;17.95;;
57389;SDS011;43217;52.694;6.214;2024-03-22T08:30:12;25.33;;;17.83;;
57389;SDS011;43217;52.694;6.214;2024-03-22T08:32:38;27.67;;;18.05;;
57389;SDS011;43217;52.694;6.214;2024-03-22T08:35:04;27.55;;;17.10;;
57389;SDS011;43217;52.694;6.214;2024-03-22T08:37:30;28.67;;;17.30;;
57389;SDS011;43217;52.694;6.214;2024-03-22T08:39:57;25.33;;;16.60;;
57389;SDS011;43217;52.694;6.214;2024-03-22T08:42:22;28.35;;;17.85;;
57389;SDS011;43217;52.694;6.214;2024-03-22T08:44:48;29.42;;;19.83;;
57389;SDS011;43217;52.694;6.214;2024-03-22T08:47:14;30.30;;;19.23;;
57389;SDS011;43217;52.694;6.214;2024-03-22T08:49:39;31.08;;;20.40;;
57389;SDS011;43217;52.694;6.214;2024-03-22T08:52:06;31.52;;;20.92;;
57389;SDS011;43217;52.694;6.214;2024-03-22T08:54:32;34.75;;;21.65;;
57389;SDS011;43217;52.694;6.214;2024-03-22T08:56:59;39.22;;;24.05;;
57389;SDS011;43217;52.694;6.214;2024-03-22T08:59:24;36.10;;;21.00;;
57389;SDS011;43217;52.694;6.214;2024-03-22T09:01:51;36.38;;;20.65;;
57389;SDS011;43217;52.694;6.214;2024-03-22T09:04:17;36.67;;;21.10;;
57389;SDS011;43217;52.694;6.214;2024-03-22T09:06:42;37.75;;;22.10;;
57389;SDS011;43217;52.694;6.214;2024-03-22T09:09:08;36.08;;;21.30;;
57389;SDS011;43217;52.694;6.214;2024-03-22T09:11:34;34.92;;;21.45;;
57389;SDS011;43217;52.694;6.214;2024-03-22T09:13:59;36.72;;;21.92;;
57389;SDS011;43217;52.694;6.214;2024-03-22T09:16:25;35.42;;;22.08;;
57389;SDS011;43217;52.694;6.214;2024-03-22T09:18:51;37.63;;;23.23;;
57389;SDS011;43217;52.694;6.214;2024-03-22T09:21:16;39.78;;;23.67;;
57389;SDS011;43217;52.694;6.214;2024-03-22T09:23:42;34.13;;;22.92;;
57389;SDS011;43217;52.694;6.214;2024-03-22T09:26:08;37.15;;;24.23;;
57389;SDS011;43217;52.694;6.214;2024-03-22T09:28:33;39.83;;;25.20;;
57389;SDS011;43217;52.694;6.214;2024-03-22T09:31:05;37.47;;;26.10;;
57389;SDS011;43217;52.694;6.214;2024-03-22T09:33:35;38.83;;;27.65;;
57389;SDS011;43217;52.694;6.214;2024-03-22T09:36:01;42.88;;;27.08;;
57389;SDS011;43217;52.694;6.214;2024-03-22T09:38:27;45.25;;;30.88;;
57389;SDS011;43217;52.694;6.214;2024-03-22T09:40:53;46.70;;;32.33;;
57389;SDS011;43217;52.694;6.214;2024-03-22T09:43:20;51.90;;;33.95;;
57389;SDS011;43217;52.694;6.214;2024-03-22T09:45:49;42.97;;;31.83;;
57389;SDS011;43217;52.694;6.214;2024-03-22T09:48:17;43.20;;;29.92;;
57389;SDS011;43217;52.694;6.214;2024-03-22T09:50:44;43.83;;;30.60;;
57389;SDS011;43217;52.694;6.214;2024-03-22T09:53:17;46.22;;;30.33;;
57389;SDS011;43217;52.694;6.214;2024-03-22T09:55:44;47.55;;;33.28;;
57389;SDS011;43217;52.694;6.214;2024-03-22T09:58:11;41.58;;;30.50;;
57389;SDS011;43217;52.694;6.214;2024-03-22T10:00:37;42.90;;;30.02;;
57389;SDS011;43217;52.694;6.214;2024-03-22T10:03:03;41.30;;;27.92;;
57389;SDS011;43217;52.694;6.214;2024-03-22T10:05:30;38.78;;;25.30;;
57389;SDS011;43217;52.694;6.214;2024-03-22T10:07:56;35.35;;;25.80;;
57389;SDS011;43217;52.694;6.214;2024-03-22T10:10:23;35.92;;;24.70;;
57389;SDS011;43217;52.694;6.214;2024-03-22T10:12:48;34.40;;;24.02;;
57389;SDS011;43217;52.694;6.214;2024-03-22T10:15:14;30.52;;;22.15;;
57389;SDS011;43217;52.694;6.214;2024-03-22T10:17:40;27.17;;;21.83;;
57389;SDS011;43217;52.694;6.214;2024-03-22T10:20:06;25.30;;;20.33;;
57389;SDS011;43217;52.694;6.214;2024-03-22T10:22:41;26.33;;;19.90;;
57389;SDS011;43217;52.694;6.214;2024-03-22T10:25:07;26.60;;;20.10;;
57389;SDS011;43217;52.694;6.214;2024-03-22T10:27:33;25.80;;;20.65;;
57389;SDS011;43217;52.694;6.214;2024-03-22T10:29:59;28.27;;;19.88;;
57389;SDS011;43217;52.694;6.214;2024-03-22T10:32:26;26.20;;;19.70;;
57389;SDS011;43217;52.694;6.214;2024-03-22T10:34:53;25.98;;;19.30;;
57389;SDS011;43217;52.694;6.214;2024-03-22T10:37:19;24.92;;;18.77;;
57389;SDS011;43217;52.694;6.214;2024-03-22T10:39:46;23.70;;;17.90;;
57389;SDS011;43217;52.694;6.214;2024-03-22T10:42:15;23.38;;;18.08;;
57389;SDS011;43217;52.694;6.214;2024-03-22T10:44:41;22.63;;;17.77;;
57389;SDS011;43217;52.694;6.214;2024-03-22T10:47:08;24.02;;;19.27;;
57389;SDS011;43217;52.694;6.214;2024-03-22T10:49:37;24.58;;;17.33;;
57389;SDS011;43217;52.694;6.214;2024-03-22T10:52:03;22.77;;;18.67;;
57389;SDS011;43217;52.694;6.214;2024-03-22T10:54:35;26.77;;;18.63;;
57389;SDS011;43217;52.694;6.214;2024-03-22T10:57:05;23.83;;;18.52;;
57389;SDS011;43217;52.694;6.214;2024-03-22T10:59:36;26.45;;;19.35;;
57389;SDS011;43217;52.694;6.214;2024-03-22T11:02:02;31.80;;;22.13;;
57389;SDS011;43217;52.694;6.214;2024-03-22T11:04:29;26.52;;;19.20;;
57389;SDS011;43217;52.694;6.214;2024-03-22T11:06:56;22.30;;;17.92;;
57389;SDS011;43217;52.694;6.214;2024-03-22T11:09:23;20.88;;;16.17;;
57389;SDS011;43217;52.694;6.214;2024-03-22T11:14:21;21.02;;;16.70;;
57389;SDS011;43217;52.694;6.214;2024-03-22T11:16:49;18.40;;;15.45;;
57389;SDS011;43217;52.694;6.214;2024-03-22T11:19:15;17.83;;;14.90;;
57389;SDS011;43217;52.694;6.214;2024-03-22T11:21:41;17.30;;;15.00;;
57389;SDS011;43217;52.694;6.214;2024-03-22T11:24:07;14.93;;;12.68;;
57389;SDS011;43217;52.694;6.214;2024-03-22T11:26:33;15.52;;;13.18;;
57389;SDS011;43217;52.694;6.214;2024-03-22T11:28:59;18.05;;;12.88;;
57389;SDS011;43217;52.694;6.214;2024-03-22T11:31:25;19.15;;;14.45;;
57389;SDS011;43217;52.694;6.214;2024-03-22T11:33:55;17.75;;;13.60;;
57389;SDS011;43217;52.694;6.214;2024-03-22T11:36:24;14.23;;;11.90;;
57389;SDS011;43217;52.694;6.214;2024-03-22T11:38:50;14.43;;;12.23;;
57389;SDS011;43217;52.694;6.214;2024-03-22T11:41:18;16.80;;;12.55;;
57389;SDS011;43217;52.694;6.214;2024-03-22T11:43:51;13.73;;;12.27;;
57389;SDS011;43217;52.694;6.214;2024-03-22T11:46:17;14.23;;;12.40;;
57389;SDS011;43217;52.694;6.214;2024-03-22T11:48:44;15.85;;;11.98;;
57389;SDS011;43217;52.694;6.214;2024-03-22T11:51:10;15.32;;;11.73;;
57389;SDS011;43217;52.694;6.214;2024-03-22T11:53:36;12.35;;;10.45;;
57389;SDS011;43217;52.694;6.214;2024-03-22T11:56:05;11.77;;;10.57;;
57389;SDS011;43217;52.694;6.214;2024-03-22T11:58:33;12.45;;;9.93;;
57389;SDS011;43217;52.694;6.214;2024-03-22T12:00:58;11.43;;;10.23;;
57389;SDS011;43217;52.694;6.214;2024-03-22T12:03:24;12.82;;;10.75;;
57389;SDS011;43217;52.694;6.214;2024-03-22T12:05:52;10.73;;;9.63;;
57389;SDS011;43217;52.694;6.214;2024-03-22T12:08:19;12.35;;;9.20;;
57389;SDS011;43217;52.694;6.214;2024-03-22T12:10:45;12.95;;;10.25;;
57389;SDS011;43217;52.694;6.214;2024-03-22T12:13:10;12.93;;;9.82;;
57389;SDS011;43217;52.694;6.214;2024-03-22T12:15:36;11.93;;;9.30;;
57389;SDS011;43217;52.694;6.214;2024-03-22T12:18:02;10.18;;;9.20;;
57389;SDS011;43217;52.694;6.214;2024-03-22T12:20:28;11.77;;;10.00;;
57389;SDS011;43217;52.694;6.214;2024-03-22T12:22:54;7.95;;;7.10;;
57389;SDS011;43217;52.694;6.214;2024-03-22T12:25:20;7.45;;;6.57;;
57389;SDS011;43217;52.694;6.214;2024-03-22T12:27:46;6.55;;;5.93;;
57389;SDS011;43217;52.694;6.214;2024-03-22T12:30:12;6.22;;;5.63;;
57389;SDS011;43217;52.694;6.214;2024-03-22T12:32:38;6.60;;;5.72;;
57389;SDS011;43217;52.694;6.214;2024-03-22T12:35:04;6.82;;;6.22;;
57389;SDS011;43217;52.694;6.214;2024-03-22T12:37:30;7.15;;;5.47;;
57389;SDS011;43217;52.694;6.214;2024-03-22T12:39:55;6.55;;;5.85;;
57389;SDS011;43217;52.694;6.214;2024-03-22T12:42:21;6.07;;;5.47;;
57389;SDS011;43217;52.694;6.214;2024-03-22T12:44:47;4.63;;;4.22;;
57389;SDS011;43217;52.694;6.214;2024-03-22T12:47:13;3.75;;;3.45;;
57389;SDS011;43217;52.694;6.214;2024-03-22T12:49:39;3.80;;;3.50;;
57389;SDS011;43217;52.694;6.214;2024-03-22T12:52:04;4.55;;;4.15;;
57389;SDS011;43217;52.694;6.214;2024-03-22T12:54:31;6.88;;;4.88;;
57389;SDS011;43217;52.694;6.214;2024-03-22T12:56:57;13.60;;;12.15;;
57389;SDS011;43217;52.694;6.214;2024-03-22T12:59:22;7.90;;;5.25;;
57389;SDS011;43217;52.694;6.214;2024-03-22T13:01:48;9.18;;;6.15;;
57389;SDS011;43217;52.694;6.214;2024-03-22T13:04:14;11.70;;;7.90;;
57389;SDS011;43217;52.694;6.214;2024-03-22T13:06:39;13.77;;;10.07;;
57389;SDS011;43217;52.694;6.214;2024-03-22T13:09:05;11.80;;;10.10;;
57389;SDS011;43217;52.694;6.214;2024-03-22T13:11:34;13.35;;;10.07;;
57389;SDS011;43217;52.694;6.214;2024-03-22T13:14:00;28.92;;;22.00;;
57389;SDS011;43217;52.694;6.214;2024-03-22T13:16:26;14.77;;;12.02;;
57389;SDS011;43217;52.694;6.214;2024-03-22T13:18:52;13.60;;;9.60;;
57389;SDS011;43217;52.694;6.214;2024-03-22T13:21:18;25.92;;;19.70;;
57389;SDS011;43217;52.694;6.214;2024-03-22T13:23:44;12.25;;;8.18;;
57389;SDS011;43217;52.694;6.214;2024-03-22T13:26:10;12.88;;;8.45;;
57389;SDS011;43217;52.694;6.214;2024-03-22T13:28:35;11.85;;;7.28;;
57389;SDS011;43217;52.694;6.214;2024-03-22T13:31:04;19.88;;;11.27;;
57389;SDS011;43217;52.694;6.214;2024-03-22T13:33:33;18.27;;;12.93;;
57389;SDS011;43217;52.694;6.214;2024-03-22T13:36:00;15.55;;;10.98;;
57389;SDS011;43217;52.694;6.214;2024-03-22T13:38:26;11.68;;;7.82;;
57389;SDS011;43217;52.694;6.214;2024-03-22T13:40:58;19.60;;;14.02;;
57389;SDS011;43217;52.694;6.214;2024-03-22T13:43:25;13.18;;;9.48;;
57389;SDS011;43217;52.694;6.214;2024-03-22T13:45:55;21.63;;;15.23;;
57389;SDS011;43217;52.694;6.214;2024-03-22T13:48:24;18.88;;;12.02;;
57389;SDS011;43217;52.694;6.214;2024-03-22T13:50:50;18.33;;;10.93;;
57389;SDS011;43217;52.694;6.214;2024-03-22T13:53:18;16.88;;;9.98;;
57389;SDS011;43217;52.694;6.214;2024-03-22T13:55:43;13.68;;;10.45;;
57389;SDS011;43217;52.694;6.214;2024-03-22T13:58:10;18.33;;;10.48;;
57389;SDS011;43217;52.694;6.214;2024-03-22T14:00:37;16.77;;;10.35;;
57389;SDS011;43217;52.694;6.214;2024-03-22T14:03:03;15.88;;;10.02;;
57389;SDS011;43217;52.694;6.214;2024-03-22T14:05:29;16.90;;;9.93;;
57389;SDS011;43217;52.694;6.214;2024-03-22T14:07:54;16.85;;;9.75;;
57389;SDS011;43217;52.694;6.214;2024-03-22T14:10:20;16.10;;;10.23;;
57389;SDS011;43217;52.694;6.214;2024-03-22T14:12:46;14.98;;;8.68;;
57389;SDS011;43217;52.694;6.214;2024-03-22T14:15:12;15.15;;;9.50;;
57389;SDS011;43217;52.694;6.214;2024-03-22T14:17:38;19.08;;;9.13;;
57389;SDS011;43217;52.694;6.214;2024-03-22T14:20:04;18.98;;;10.93;;
57389;SDS011;43217;52.694;6.214;2024-03-22T14:22:36;16.88;;;7.90;;
57389;SDS011;43217;52.694;6.214;2024-03-22T14:25:05;13.68;;;6.78;;